sensor_id;sensor_type;location;lat;lon;timestamp;P1;durP1;ratioP1;P2;durP2;ratioP2
57025;SDS011;43961;52.940;6.834;2022-10-12T00:00:55;8.02;;;4.03;;
57025;SDS011;43961;52.940;6.834;2022-10-12T00:03:21;10.85;;;8.93;;
57025;SDS011;43961;52.940;6.834;2022-10-12T00:05:47;5.90;;;3.88;;
57025;SDS011;43961;52.940;6.834;2022-10-12T00:08:23;8.35;;;5.47;;
57025;SDS011;43961;52.940;6.834;2022-10-12T00:10:49;18.23;;;10.65;;
57025;SDS011;43961;52.940;6.834;2022-10-12T00:13:14;15.18;;;10.15;;
57025;SDS011;43961;52.940;6.834;2022-10-12T00:15:40;16.50;;;6.68;;
57025;SDS011;43961;52.940;6.834;2022-10-12T00:18:07;18.70;;;11.93;;
57025;SDS011;43961;52.940;6.834;2022-10-12T00:20:33;6.85;;;3.88;;
57025;SDS011;43961;52.940;6.834;2022-10-12T00:22:58;15.43;;;4.05;;
57025;SDS011;43961;52.940;6.834;2022-10-12T00:25:24;6.40;;;4.72;;
57025;SDS011;43961;52.940;6.834;2022-10-12T00:27:50;15.63;;;6.47;;
57025;SDS011;43961;52.940;6.834;2022-10-12T00:30:16;6.85;;;4.03;;
57025;SDS011;43961;52.940;6.834;2022-10-12T00:32:42;7.97;;;3.53;;
57025;SDS011;43961;52.940;6.834;2022-10-12T00:35:07;16.15;;;9.52;;
57025;SDS011;43961;52.940;6.834;2022-10-12T00:37:33;11.45;;;4.03;;
57025;SDS011;43961;52.940;6.834;2022-10-12T00:39:59;15.60;;;9.98;;
57025;SDS011;43961;52.940;6.834;2022-10-12T00:42:25;4.65;;;3.90;;
57025;SDS011;43961;52.940;6.834;2022-10-12T00:44:50;17.50;;;9.70;;
57025;SDS011;43961;52.940;6.834;2022-10-12T00:49:51;7.30;;;3.78;;
57025;SDS011;43961;52.940;6.834;2022-10-12T00:55:19;9.15;;;4.43;;
57025;SDS011;43961;52.940;6.834;2022-10-12T00:57:47;5.82;;;3.22;;
57025;SDS011;43961;52.940;6.834;2022-10-12T01:00:15;8.30;;;4.93;;
57025;SDS011;43961;52.940;6.834;2022-10-12T01:02:42;5.65;;;3.47;;
57025;SDS011;43961;52.940;6.834;2022-10-12T01:05:10;22.08;;;11.43;;
57025;SDS011;43961;52.940;6.834;2022-10-12T01:07:38;6.43;;;3.65;;
57025;SDS011;43961;52.940;6.834;2022-10-12T01:10:04;14.60;;;9.95;;
57025;SDS011;43961;52.940;6.834;2022-10-12T01:12:30;16.10;;;2.92;;
57025;SDS011;43961;52.940;6.834;2022-10-12T01:14:56;10.77;;;7.97;;
57025;SDS011;43961;52.940;6.834;2022-10-12T01:17:47;5.78;;;3.25;;
57025;SDS011;43961;52.940;6.834;2022-10-12T01:34:41;9.77;;;4.07;;
57025;SDS011;43961;52.940;6.834;2022-10-12T01:36:40;8.93;;;4.13;;
57025;SDS011;43961;52.940;6.834;2022-10-12T01:41:50;11.85;;;9.50;;
57025;SDS011;43961;52.940;6.834;2022-10-12T01:44:20;7.40;;;4.32;;
57025;SDS011;43961;52.940;6.834;2022-10-12T01:46:50;5.47;;;3.80;;
57025;SDS011;43961;52.940;6.834;2022-10-12T01:49:18;29.92;;;10.68;;
57025;SDS011;43961;52.940;6.834;2022-10-12T01:54:33;22.27;;;9.77;;
57025;SDS011;43961;52.940;6.834;2022-10-12T01:57:24;5.80;;;3.63;;
57025;SDS011;43961;52.940;6.834;2022-10-12T02:00:09;26.15;;;5.85;;
57025;SDS011;43961;52.940;6.834;2022-10-12T02:02:51;20.10;;;9.77;;
57025;SDS011;43961;52.940;6.834;2022-10-12T02:05:25;6.45;;;4.35;;
57025;SDS011;43961;52.940;6.834;2022-10-12T02:10:39;16.10;;;8.75;;
57025;SDS011;43961;52.940;6.834;2022-10-12T02:13:10;3.90;;;3.35;;
57025;SDS011;43961;52.940;6.834;2022-10-12T02:15:39;20.45;;;9.85;;
57025;SDS011;43961;52.940;6.834;2022-10-12T02:18:07;3.72;;;2.75;;
57025;SDS011;43961;52.940;6.834;2022-10-12T02:20:36;7.25;;;4.57;;
57025;SDS011;43961;52.940;6.834;2022-10-12T02:23:04;4.35;;;3.08;;
57025;SDS011;43961;52.940;6.834;2022-10-12T02:25:31;14.50;;;4.97;;
57025;SDS011;43961;52.940;6.834;2022-10-12T02:28:04;25.15;;;11.35;;
57025;SDS011;43961;52.940;6.834;2022-10-12T02:30:39;23.83;;;12.95;;
57025;SDS011;43961;52.940;6.834;2022-10-12T02:33:12;21.73;;;12.63;;
57025;SDS011;43961;52.940;6.834;2022-10-12T02:35:49;14.50;;;5.38;;
57025;SDS011;43961;52.940;6.834;2022-10-12T02:38:27;14.57;;;11.23;;
57025;SDS011;43961;52.940;6.834;2022-10-12T02:41:02;16.15;;;9.35;;
57025;SDS011;43961;52.940;6.834;2022-10-12T02:43:36;6.75;;;3.67;;
57025;SDS011;43961;52.940;6.834;2022-10-12T02:46:08;5.30;;;3.58;;
57025;SDS011;43961;52.940;6.834;2022-10-12T02:48:38;17.33;;;9.77;;
57025;SDS011;43961;52.940;6.834;2022-10-12T02:51:04;13.38;;;4.30;;
57025;SDS011;43961;52.940;6.834;2022-10-12T02:53:31;7.97;;;3.05;;
57025;SDS011;43961;52.940;6.834;2022-10-12T02:56:05;12.00;;;9.40;;
57025;SDS011;43961;52.940;6.834;2022-10-12T02:58:34;7.03;;;4.05;;
57025;SDS011;43961;52.940;6.834;2022-10-12T03:01:00;9.52;;;5.00;;
57025;SDS011;43961;52.940;6.834;2022-10-12T03:03:25;5.38;;;3.28;;
57025;SDS011;43961;52.940;6.834;2022-10-12T03:05:51;6.03;;;2.45;;
57025;SDS011;43961;52.940;6.834;2022-10-12T03:08:17;5.13;;;3.58;;
57025;SDS011;43961;52.940;6.834;2022-10-12T03:10:42;4.20;;;2.65;;
57025;SDS011;43961;52.940;6.834;2022-10-12T03:13:08;4.00;;;2.63;;
57025;SDS011;43961;52.940;6.834;2022-10-12T03:15:34;4.65;;;3.03;;
57025;SDS011;43961;52.940;6.834;2022-10-12T03:17:59;5.32;;;2.78;;
57025;SDS011;43961;52.940;6.834;2022-10-12T03:20:25;7.22;;;3.25;;
57025;SDS011;43961;52.940;6.834;2022-10-12T03:22:50;5.20;;;2.50;;
57025;SDS011;43961;52.940;6.834;2022-10-12T03:25:16;2.58;;;2.20;;
57025;SDS011;43961;52.940;6.834;2022-10-12T03:27:42;10.48;;;8.07;;
57025;SDS011;43961;52.940;6.834;2022-10-12T03:30:08;3.72;;;2.63;;
57025;SDS011;43961;52.940;6.834;2022-10-12T03:32:35;4.72;;;2.88;;
57025;SDS011;43961;52.940;6.834;2022-10-12T03:35:02;18.73;;;9.98;;
57025;SDS011;43961;52.940;6.834;2022-10-12T03:37:28;9.63;;;5.45;;
57025;SDS011;43961;52.940;6.834;2022-10-12T03:39:53;8.90;;;3.95;;
57025;SDS011;43961;52.940;6.834;2022-10-12T03:42:19;6.72;;;3.78;;
57025;SDS011;43961;52.940;6.834;2022-10-12T03:44:46;12.85;;;10.02;;
57025;SDS011;43961;52.940;6.834;2022-10-12T03:47:11;6.45;;;3.78;;
57025;SDS011;43961;52.940;6.834;2022-10-12T03:49:37;8.57;;;4.22;;
57025;SDS011;43961;52.940;6.834;2022-10-12T03:52:03;7.43;;;4.00;;
57025;SDS011;43961;52.940;6.834;2022-10-12T03:54:28;7.03;;;4.90;;
57025;SDS011;43961;52.940;6.834;2022-10-12T03:56:54;16.10;;;12.23;;
57025;SDS011;43961;52.940;6.834;2022-10-12T03:59:20;13.23;;;6.53;;
57025;SDS011;43961;52.940;6.834;2022-10-12T04:01:46;22.02;;;12.57;;
57025;SDS011;43961;52.940;6.834;2022-10-12T04:04:11;5.72;;;5.13;;
57025;SDS011;43961;52.940;6.834;2022-10-12T04:06:37;14.60;;;11.20;;
57025;SDS011;43961;52.940;6.834;2022-10-12T04:09:03;6.95;;;3.92;;
57025;SDS011;43961;52.940;6.834;2022-10-12T04:11:28;21.90;;;13.05;;
57025;SDS011;43961;52.940;6.834;2022-10-12T04:13:54;22.63;;;13.65;;
57025;SDS011;43961;52.940;6.834;2022-10-12T04:16:19;9.15;;;5.20;;
57025;SDS011;43961;52.940;6.834;2022-10-12T04:18:45;18.65;;;6.78;;
57025;SDS011;43961;52.940;6.834;2022-10-12T04:21:12;5.28;;;4.05;;
57025;SDS011;43961;52.940;6.834;2022-10-12T04:23:39;16.15;;;10.18;;
57025;SDS011;43961;52.940;6.834;2022-10-12T04:26:05;13.10;;;5.00;;
57025;SDS011;43961;52.940;6.834;2022-10-12T04:28:31;4.18;;;3.10;;
57025;SDS011;43961;52.940;6.834;2022-10-12T04:30:57;5.70;;;4.00;;
57025;SDS011;43961;52.940;6.834;2022-10-12T04:33:22;7.32;;;4.43;;
57025;SDS011;43961;52.940;6.834;2022-10-12T04:35:48;12.57;;;11.23;;
57025;SDS011;43961;52.940;6.834;2022-10-12T04:38:14;14.45;;;11.50;;
57025;SDS011;43961;52.940;6.834;2022-10-12T04:40:39;16.48;;;13.20;;
57025;SDS011;43961;52.940;6.834;2022-10-12T04:43:05;6.70;;;5.18;;
57025;SDS011;43961;52.940;6.834;2022-10-12T04:45:30;8.05;;;5.57;;
57025;SDS011;43961;52.940;6.834;2022-10-12T04:47:56;6.25;;;5.55;;
57025;SDS011;43961;52.940;6.834;2022-10-12T04:50:22;8.63;;;5.07;;
57025;SDS011;43961;52.940;6.834;2022-10-12T04:52:47;6.03;;;4.00;;
57025;SDS011;43961;52.940;6.834;2022-10-12T04:55:13;25.33;;;15.65;;
57025;SDS011;43961;52.940;6.834;2022-10-12T04:57:39;13.90;;;7.03;;
57025;SDS011;43961;52.940;6.834;2022-10-12T05:00:05;27.60;;;19.40;;
57025;SDS011;43961;52.940;6.834;2022-10-12T05:02:31;17.67;;;7.18;;
57025;SDS011;43961;52.940;6.834;2022-10-12T05:04:57;29.67;;;19.15;;
57025;SDS011;43961;52.940;6.834;2022-10-12T05:07:23;16.13;;;7.53;;
57025;SDS011;43961;52.940;6.834;2022-10-12T05:09:49;27.67;;;20.52;;
57025;SDS011;43961;52.940;6.834;2022-10-12T05:12:15;12.98;;;7.75;;
57025;SDS011;43961;52.940;6.834;2022-10-12T05:14:41;11.68;;;7.95;;
57025;SDS011;43961;52.940;6.834;2022-10-12T05:17:08;24.10;;;19.77;;
57025;SDS011;43961;52.940;6.834;2022-10-12T05:19:34;15.00;;;8.35;;
57025;SDS011;43961;52.940;6.834;2022-10-12T05:22:00;12.88;;;8.70;;
57025;SDS011;43961;52.940;6.834;2022-10-12T05:24:26;13.57;;;7.97;;
57025;SDS011;43961;52.940;6.834;2022-10-12T05:26:51;26.48;;;21.00;;
57025;SDS011;43961;52.940;6.834;2022-10-12T05:29:17;10.50;;;7.28;;
57025;SDS011;43961;52.940;6.834;2022-10-12T05:31:42;11.45;;;7.75;;
57025;SDS011;43961;52.940;6.834;2022-10-12T05:34:08;11.95;;;7.60;;
57025;SDS011;43961;52.940;6.834;2022-10-12T05:36:34;11.63;;;7.25;;
57025;SDS011;43961;52.940;6.834;2022-10-12T05:38:59;15.10;;;8.75;;
57025;SDS011;43961;52.940;6.834;2022-10-12T05:41:25;25.90;;;19.42;;
57025;SDS011;43961;52.940;6.834;2022-10-12T05:43:51;12.80;;;8.10;;
57025;SDS011;43961;52.940;6.834;2022-10-12T05:46:17;17.25;;;8.63;;
57025;SDS011;43961;52.940;6.834;2022-10-12T05:48:43;27.00;;;20.13;;
57025;SDS011;43961;52.940;6.834;2022-10-12T05:51:08;12.05;;;6.47;;
57025;SDS011;43961;52.940;6.834;2022-10-12T05:53:35;15.63;;;6.68;;
57025;SDS011;43961;52.940;6.834;2022-10-12T05:56:01;14.02;;;7.40;;
57025;SDS011;43961;52.940;6.834;2022-10-12T05:58:28;25.23;;;20.83;;
57025;SDS011;43961;52.940;6.834;2022-10-12T06:00:54;18.85;;;8.20;;
57025;SDS011;43961;52.940;6.834;2022-10-12T06:03:27;10.80;;;6.80;;
57025;SDS011;43961;52.940;6.834;2022-10-12T06:05:53;31.77;;;22.10;;
57025;SDS011;43961;52.940;6.834;2022-10-12T06:08:19;29.67;;;22.52;;
57025;SDS011;43961;52.940;6.834;2022-10-12T06:10:45;18.38;;;7.57;;
57025;SDS011;43961;52.940;6.834;2022-10-12T06:13:13;15.32;;;7.80;;
57025;SDS011;43961;52.940;6.834;2022-10-12T06:15:43;42.35;;;24.88;;
57025;SDS011;43961;52.940;6.834;2022-10-12T06:18:09;10.05;;;8.82;;
57025;SDS011;43961;52.940;6.834;2022-10-12T06:20:34;32.90;;;24.38;;
57025;SDS011;43961;52.940;6.834;2022-10-12T06:23:00;31.75;;;21.92;;
57025;SDS011;43961;52.940;6.834;2022-10-12T06:25:26;22.08;;;8.25;;
57025;SDS011;43961;52.940;6.834;2022-10-12T06:27:52;15.60;;;6.80;;
57025;SDS011;43961;52.940;6.834;2022-10-12T06:30:17;36.63;;;24.50;;
57025;SDS011;43961;52.940;6.834;2022-10-12T06:32:43;34.50;;;24.83;;
57025;SDS011;43961;52.940;6.834;2022-10-12T06:35:08;37.38;;;24.65;;
57025;SDS011;43961;52.940;6.834;2022-10-12T06:37:35;31.70;;;22.25;;
57025;SDS011;43961;52.940;6.834;2022-10-12T06:40:01;13.85;;;8.73;;
57025;SDS011;43961;52.940;6.834;2022-10-12T06:42:26;21.48;;;14.38;;
57025;SDS011;43961;52.940;6.834;2022-10-12T06:44:52;10.88;;;5.80;;
57025;SDS011;43961;52.940;6.834;2022-10-12T06:47:18;5.75;;;3.95;;
57025;SDS011;43961;52.940;6.834;2022-10-12T06:49:43;22.70;;;7.72;;
57025;SDS011;43961;52.940;6.834;2022-10-12T06:52:09;26.88;;;19.58;;
57025;SDS011;43961;52.940;6.834;2022-10-12T06:54:34;13.02;;;9.75;;
57025;SDS011;43961;52.940;6.834;2022-10-12T06:57:00;9.52;;;8.30;;
57025;SDS011;43961;52.940;6.834;2022-10-12T06:59:25;13.18;;;8.27;;
57025;SDS011;43961;52.940;6.834;2022-10-12T07:01:51;19.30;;;17.23;;
57025;SDS011;43961;52.940;6.834;2022-10-12T07:04:17;13.20;;;7.97;;
57025;SDS011;43961;52.940;6.834;2022-10-12T07:06:43;18.58;;;16.77;;
57025;SDS011;43961;52.940;6.834;2022-10-12T07:09:08;8.23;;;5.85;;
57025;SDS011;43961;52.940;6.834;2022-10-12T07:11:34;20.50;;;18.15;;
57025;SDS011;43961;52.940;6.834;2022-10-12T07:14:00;10.40;;;6.53;;
57025;SDS011;43961;52.940;6.834;2022-10-12T07:16:25;21.50;;;18.77;;
57025;SDS011;43961;52.940;6.834;2022-10-12T07:18:51;14.35;;;7.63;;
57025;SDS011;43961;52.940;6.834;2022-10-12T07:21:17;11.85;;;7.28;;
57025;SDS011;43961;52.940;6.834;2022-10-12T07:23:42;22.83;;;9.50;;
57025;SDS011;43961;52.940;6.834;2022-10-12T07:26:08;32.10;;;21.92;;
57025;SDS011;43961;52.940;6.834;2022-10-12T07:28:34;10.93;;;8.43;;
57025;SDS011;43961;52.940;6.834;2022-10-12T07:31:04;17.75;;;10.07;;
57025;SDS011;43961;52.940;6.834;2022-10-12T07:33:33;35.65;;;25.60;;
57025;SDS011;43961;52.940;6.834;2022-10-12T07:36:00;19.38;;;10.65;;
57025;SDS011;43961;52.940;6.834;2022-10-12T07:38:27;15.68;;;10.20;;
57025;SDS011;43961;52.940;6.834;2022-10-12T07:40:53;51.60;;;29.60;;
57025;SDS011;43961;52.940;6.834;2022-10-12T07:43:19;32.15;;;13.43;;
57025;SDS011;43961;52.940;6.834;2022-10-12T07:45:44;54.80;;;30.65;;
57025;SDS011;43961;52.940;6.834;2022-10-12T07:48:10;23.85;;;10.98;;
57025;SDS011;43961;52.940;6.834;2022-10-12T07:50:36;37.05;;;11.73;;
57025;SDS011;43961;52.940;6.834;2022-10-12T07:53:02;30.77;;;9.52;;
57025;SDS011;43961;52.940;6.834;2022-10-12T07:55:29;47.08;;;31.58;;
57025;SDS011;43961;52.940;6.834;2022-10-12T07:57:56;23.75;;;10.63;;
57025;SDS011;43961;52.940;6.834;2022-10-12T08:00:25;20.88;;;9.02;;
57025;SDS011;43961;52.940;6.834;2022-10-12T08:02:52;21.52;;;8.48;;
57025;SDS011;43961;52.940;6.834;2022-10-12T08:05:17;32.03;;;15.32;;
57025;SDS011;43961;52.940;6.834;2022-10-12T08:07:45;49.78;;;33.65;;
57025;SDS011;43961;52.940;6.834;2022-10-12T08:10:12;21.15;;;10.52;;
57025;SDS011;43961;52.940;6.834;2022-10-12T08:12:38;19.77;;;11.00;;
57025;SDS011;43961;52.940;6.834;2022-10-12T08:15:04;16.83;;;9.38;;
57025;SDS011;43961;52.940;6.834;2022-10-12T08:17:30;58.08;;;31.98;;
57025;SDS011;43961;52.940;6.834;2022-10-12T08:19:55;18.17;;;11.02;;
57025;SDS011;43961;52.940;6.834;2022-10-12T08:22:21;58.10;;;34.58;;
57025;SDS011;43961;52.940;6.834;2022-10-12T08:24:47;19.55;;;10.07;;
57025;SDS011;43961;52.940;6.834;2022-10-12T08:27:13;26.52;;;9.25;;
57025;SDS011;43961;52.940;6.834;2022-10-12T08:29:38;56.13;;;33.40;;
57025;SDS011;43961;52.940;6.834;2022-10-12T08:32:04;59.03;;;35.45;;
57025;SDS011;43961;52.940;6.834;2022-10-12T08:34:30;58.13;;;36.22;;
57025;SDS011;43961;52.940;6.834;2022-10-12T08:36:56;83.10;;;35.78;;
57025;SDS011;43961;52.940;6.834;2022-10-12T08:39:23;43.40;;;18.40;;
57025;SDS011;43961;52.940;6.834;2022-10-12T08:42:27;33.75;;;13.10;;
57025;SDS011;43961;52.940;6.834;2022-10-12T08:50:24;23.23;;;10.60;;
57025;SDS011;43961;52.940;6.834;2022-10-12T08:52:55;26.92;;;13.90;;
57025;SDS011;43961;52.940;6.834;2022-10-12T08:55:33;61.65;;;34.80;;
57025;SDS011;43961;52.940;6.834;2022-10-12T08:58:07;25.95;;;11.98;;
57025;SDS011;43961;52.940;6.834;2022-10-12T09:00:48;62.33;;;32.13;;
57025;SDS011;43961;52.940;6.834;2022-10-12T09:03:20;49.17;;;31.23;;
57025;SDS011;43961;52.940;6.834;2022-10-12T09:06:14;51.22;;;31.17;;
57025;SDS011;43961;52.940;6.834;2022-10-12T09:11:32;60.42;;;31.10;;
57025;SDS011;43961;52.940;6.834;2022-10-12T09:14:18;50.88;;;30.20;;
57025;SDS011;43961;52.940;6.834;2022-10-12T09:16:47;55.00;;;27.55;;
57025;SDS011;43961;52.940;6.834;2022-10-12T09:19:19;56.22;;;28.00;;
57025;SDS011;43961;52.940;6.834;2022-10-12T09:21:49;55.90;;;28.65;;
57025;SDS011;43961;52.940;6.834;2022-10-12T09:24:17;54.97;;;27.23;;
57025;SDS011;43961;52.940;6.834;2022-10-12T09:26:51;54.65;;;23.80;;
57025;SDS011;43961;52.940;6.834;2022-10-12T09:29:25;49.25;;;27.15;;
57025;SDS011;43961;52.940;6.834;2022-10-12T09:32:05;40.05;;;24.95;;
57025;SDS011;43961;52.940;6.834;2022-10-12T09:34:47;55.40;;;24.85;;
57025;SDS011;43961;52.940;6.834;2022-10-12T09:37:17;51.60;;;24.30;;
57025;SDS011;43961;52.940;6.834;2022-10-12T09:39:45;44.60;;;22.58;;
57025;SDS011;43961;52.940;6.834;2022-10-12T09:42:11;58.85;;;24.27;;
57025;SDS011;43961;52.940;6.834;2022-10-12T09:44:42;50.10;;;25.17;;
57025;SDS011;43961;52.940;6.834;2022-10-12T09:49:46;47.58;;;22.17;;
57025;SDS011;43961;52.940;6.834;2022-10-12T09:52:20;33.92;;;21.23;;
57025;SDS011;43961;52.940;6.834;2022-10-12T09:54:52;35.63;;;20.90;;
57025;SDS011;43961;52.940;6.834;2022-10-12T09:57:30;56.05;;;22.85;;
57025;SDS011;43961;52.940;6.834;2022-10-12T09:59:57;36.63;;;16.70;;
57025;SDS011;43961;52.940;6.834;2022-10-12T10:02:26;58.95;;;18.30;;
57025;SDS011;43961;52.940;6.834;2022-10-12T10:04:53;25.15;;;14.43;;
57025;SDS011;43961;52.940;6.834;2022-10-12T10:10:02;35.08;;;15.27;;
57025;SDS011;43961;52.940;6.834;2022-10-12T10:12:47;39.10;;;13.43;;
57025;SDS011;43961;52.940;6.834;2022-10-12T10:17:52;32.65;;;13.23;;
57025;SDS011;43961;52.940;6.834;2022-10-12T10:20:25;41.80;;;13.38;;
57025;SDS011;43961;52.940;6.834;2022-10-12T10:22:57;28.17;;;10.88;;
57025;SDS011;43961;52.940;6.834;2022-10-12T10:25:24;19.48;;;9.98;;
57025;SDS011;43961;52.940;6.834;2022-10-12T10:28:11;20.38;;;12.43;;
57025;SDS011;43961;52.940;6.834;2022-10-12T10:30:55;30.63;;;10.40;;
57025;SDS011;43961;52.940;6.834;2022-10-12T10:33:45;32.20;;;11.45;;
57025;SDS011;43961;52.940;6.834;2022-10-12T10:37:00;25.63;;;9.68;;
57025;SDS011;43961;52.940;6.834;2022-10-12T10:39:50;32.10;;;9.50;;
57025;SDS011;43961;52.940;6.834;2022-10-12T10:42:37;16.50;;;8.50;;
57025;SDS011;43961;52.940;6.834;2022-10-12T10:45:26;19.60;;;7.90;;
57025;SDS011;43961;52.940;6.834;2022-10-12T10:48:14;20.13;;;7.90;;
57025;SDS011;43961;52.940;6.834;2022-10-12T10:50:50;23.73;;;7.60;;
57025;SDS011;43961;52.940;6.834;2022-10-12T10:53:25;10.98;;;6.25;;
57025;SDS011;43961;52.940;6.834;2022-10-12T10:58:42;21.55;;;6.63;;
57025;SDS011;43961;52.940;6.834;2022-10-12T11:04:13;17.42;;;6.80;;
57025;SDS011;43961;52.940;6.834;2022-10-12T11:06:45;16.05;;;6.78;;
57025;SDS011;43961;52.940;6.834;2022-10-12T11:09:22;25.08;;;8.23;;
57025;SDS011;43961;52.940;6.834;2022-10-12T11:11:56;22.42;;;6.68;;
57025;SDS011;43961;52.940;6.834;2022-10-12T11:14:39;25.98;;;7.63;;
57025;SDS011;43961;52.940;6.834;2022-10-12T11:23:19;19.00;;;8.20;;
57025;SDS011;43961;52.940;6.834;2022-10-12T11:28:44;28.25;;;10.10;;
57025;SDS011;43961;52.940;6.834;2022-10-12T11:31:44;21.45;;;11.45;;
57025;SDS011;43961;52.940;6.834;2022-10-12T11:34:04;31.30;;;11.00;;
57025;SDS011;43961;52.940;6.834;2022-10-12T11:36:33;31.98;;;8.48;;
57025;SDS011;43961;52.940;6.834;2022-10-12T11:39:07;28.65;;;9.45;;
57025;SDS011;43961;52.940;6.834;2022-10-12T11:41:41;18.98;;;9.07;;
57025;SDS011;43961;52.940;6.834;2022-10-12T11:46:41;18.38;;;7.68;;
57025;SDS011;43961;52.940;6.834;2022-10-12T11:50:13;23.50;;;8.05;;
57025;SDS011;43961;52.940;6.834;2022-10-12T11:52:04;20.60;;;8.90;;
57025;SDS011;43961;52.940;6.834;2022-10-12T11:57:30;22.90;;;8.68;;
57025;SDS011;43961;52.940;6.834;2022-10-12T12:00:03;16.42;;;6.45;;
57025;SDS011;43961;52.940;6.834;2022-10-12T12:02:41;22.15;;;7.70;;
57025;SDS011;43961;52.940;6.834;2022-10-12T12:05:14;26.77;;;7.60;;
57025;SDS011;43961;52.940;6.834;2022-10-12T12:07:42;14.73;;;5.57;;
57025;SDS011;43961;52.940;6.834;2022-10-12T12:16:25;21.88;;;6.75;;
57025;SDS011;43961;52.940;6.834;2022-10-12T12:18:24;15.30;;;6.32;;
57025;SDS011;43961;52.940;6.834;2022-10-12T12:21:00;15.98;;;5.38;;
57025;SDS011;43961;52.940;6.834;2022-10-12T12:28:36;26.23;;;6.07;;
57025;SDS011;43961;52.940;6.834;2022-10-12T12:33:38;18.38;;;6.53;;
57025;SDS011;43961;52.940;6.834;2022-10-12T12:36:07;16.67;;;5.72;;
57025;SDS011;43961;52.940;6.834;2022-10-12T12:38:39;22.08;;;7.82;;
57025;SDS011;43961;52.940;6.834;2022-10-12T12:41:18;19.73;;;6.45;;
57025;SDS011;43961;52.940;6.834;2022-10-12T12:46:17;10.10;;;5.05;;
57025;SDS011;43961;52.940;6.834;2022-10-12T12:51:52;10.02;;;5.80;;
57025;SDS011;43961;52.940;6.834;2022-10-12T12:54:04;18.20;;;6.55;;
57025;SDS011;43961;52.940;6.834;2022-10-12T13:14:51;17.90;;;8.05;;
57025;SDS011;43961;52.940;6.834;2022-10-12T13:19:46;16.85;;;7.00;;
57025;SDS011;43961;52.940;6.834;2022-10-12T13:22:14;21.58;;;7.85;;
57025;SDS011;43961;52.940;6.834;2022-10-12T13:24:46;19.40;;;8.10;;
57025;SDS011;43961;52.940;6.834;2022-10-12T13:30:11;21.63;;;8.32;;
57025;SDS011;43961;52.940;6.834;2022-10-12T13:32:46;20.15;;;7.18;;
57025;SDS011;43961;52.940;6.834;2022-10-12T13:35:29;18.30;;;7.13;;
57025;SDS011;43961;52.940;6.834;2022-10-12T13:40:54;22.88;;;8.55;;
57025;SDS011;43961;52.940;6.834;2022-10-12T13:43:38;35.80;;;11.05;;
57025;SDS011;43961;52.940;6.834;2022-10-12T13:46:06;22.92;;;9.05;;
57025;SDS011;43961;52.940;6.834;2022-10-12T13:48:34;28.85;;;8.93;;
57025;SDS011;43961;52.940;6.834;2022-10-12T13:51:01;25.45;;;9.10;;
57025;SDS011;43961;52.940;6.834;2022-10-12T13:53:36;17.23;;;8.38;;
57025;SDS011;43961;52.940;6.834;2022-10-12T13:56:13;25.67;;;8.60;;
57025;SDS011;43961;52.940;6.834;2022-10-12T13:58:41;29.52;;;9.60;;
57025;SDS011;43961;52.940;6.834;2022-10-12T14:01:11;20.95;;;7.93;;
57025;SDS011;43961;52.940;6.834;2022-10-12T14:03:38;30.25;;;9.98;;
57025;SDS011;43961;52.940;6.834;2022-10-12T14:06:19;19.92;;;9.23;;
57025;SDS011;43961;52.940;6.834;2022-10-12T14:08:55;17.40;;;8.60;;
57025;SDS011;43961;52.940;6.834;2022-10-12T14:11:23;20.02;;;8.75;;
57025;SDS011;43961;52.940;6.834;2022-10-12T14:13:50;19.83;;;9.10;;
57025;SDS011;43961;52.940;6.834;2022-10-12T14:16:17;22.15;;;8.65;;
57025;SDS011;43961;52.940;6.834;2022-10-12T14:18:44;34.28;;;10.65;;
57025;SDS011;43961;52.940;6.834;2022-10-12T14:23:57;25.52;;;8.18;;
57025;SDS011;43961;52.940;6.834;2022-10-12T14:26:51;27.50;;;9.25;;
57025;SDS011;43961;52.940;6.834;2022-10-12T14:34:37;16.95;;;7.55;;
57025;SDS011;43961;52.940;6.834;2022-10-12T14:39:31;25.10;;;8.63;;
57025;SDS011;43961;52.940;6.834;2022-10-12T14:41:59;22.27;;;9.02;;
57025;SDS011;43961;52.940;6.834;2022-10-12T14:44:42;28.17;;;8.43;;
57025;SDS011;43961;52.940;6.834;2022-10-12T14:47:15;17.55;;;7.72;;
57025;SDS011;43961;52.940;6.834;2022-10-12T14:50:04;16.73;;;7.57;;
57025;SDS011;43961;52.940;6.834;2022-10-12T14:52:36;16.48;;;8.48;;
57025;SDS011;43961;52.940;6.834;2022-10-12T14:55:21;19.33;;;8.30;;
57025;SDS011;43961;52.940;6.834;2022-10-12T14:57:51;24.88;;;8.85;;
57025;SDS011;43961;52.940;6.834;2022-10-12T15:00:21;23.05;;;8.95;;
57025;SDS011;43961;52.940;6.834;2022-10-12T15:02:52;34.55;;;9.30;;
57025;SDS011;43961;52.940;6.834;2022-10-12T15:05:19;22.70;;;10.15;;
57025;SDS011;43961;52.940;6.834;2022-10-12T15:07:46;21.77;;;9.70;;
57025;SDS011;43961;52.940;6.834;2022-10-12T15:10:13;19.35;;;6.88;;
57025;SDS011;43961;52.940;6.834;2022-10-12T15:12:39;20.88;;;8.18;;
57025;SDS011;43961;52.940;6.834;2022-10-12T15:17:50;21.05;;;8.38;;
57025;SDS011;43961;52.940;6.834;2022-10-12T15:20:16;22.10;;;8.98;;
57025;SDS011;43961;52.940;6.834;2022-10-12T15:22:41;22.00;;;9.45;;
57025;SDS011;43961;52.940;6.834;2022-10-12T15:25:22;20.42;;;8.90;;
57025;SDS011;43961;52.940;6.834;2022-10-12T15:27:52;23.95;;;7.10;;
57025;SDS011;43961;52.940;6.834;2022-10-12T15:30:17;23.80;;;8.27;;
57025;SDS011;43961;52.940;6.834;2022-10-12T15:32:43;25.23;;;8.68;;
57025;SDS011;43961;52.940;6.834;2022-10-12T15:35:19;18.92;;;7.75;;
57025;SDS011;43961;52.940;6.834;2022-10-12T15:37:49;19.67;;;6.80;;
57025;SDS011;43961;52.940;6.834;2022-10-12T15:40:16;15.52;;;8.00;;
57025;SDS011;43961;52.940;6.834;2022-10-12T15:42:43;24.00;;;7.38;;
57025;SDS011;43961;52.940;6.834;2022-10-12T15:47:46;23.27;;;7.88;;
57025;SDS011;43961;52.940;6.834;2022-10-12T15:50:14;26.88;;;8.05;;
57025;SDS011;43961;52.940;6.834;2022-10-12T15:52:40;19.30;;;6.80;;
57025;SDS011;43961;52.940;6.834;2022-10-12T15:55:22;18.50;;;8.43;;
57025;SDS011;43961;52.940;6.834;2022-10-12T15:57:50;12.43;;;7.07;;
57025;SDS011;43961;52.940;6.834;2022-10-12T16:00:17;13.77;;;6.95;;
57025;SDS011;43961;52.940;6.834;2022-10-12T16:02:43;19.48;;;7.20;;
57025;SDS011;43961;52.940;6.834;2022-10-12T16:05:15;23.85;;;6.85;;
57025;SDS011;43961;52.940;6.834;2022-10-12T16:07:55;15.02;;;6.35;;
57025;SDS011;43961;52.940;6.834;2022-10-12T16:10:23;19.33;;;6.68;;
57025;SDS011;43961;52.940;6.834;2022-10-12T16:12:51;18.25;;;7.38;;
57025;SDS011;43961;52.940;6.834;2022-10-12T16:15:19;14.20;;;6.75;;
57025;SDS011;43961;52.940;6.834;2022-10-12T16:17:48;23.10;;;6.85;;
57025;SDS011;43961;52.940;6.834;2022-10-12T16:20:15;11.67;;;5.67;;
57025;SDS011;43961;52.940;6.834;2022-10-12T16:22:41;16.85;;;7.65;;
57025;SDS011;43961;52.940;6.834;2022-10-12T16:25:10;15.75;;;6.28;;
57025;SDS011;43961;52.940;6.834;2022-10-12T16:30:03;27.25;;;7.07;;
57025;SDS011;43961;52.940;6.834;2022-10-12T16:32:30;20.30;;;7.00;;
57025;SDS011;43961;52.940;6.834;2022-10-12T16:34:56;18.95;;;7.13;;
57025;SDS011;43961;52.940;6.834;2022-10-12T16:37:22;19.98;;;7.22;;
57025;SDS011;43961;52.940;6.834;2022-10-12T16:39:48;20.77;;;8.63;;
57025;SDS011;43961;52.940;6.834;2022-10-12T16:44:41;15.50;;;7.82;;
57025;SDS011;43961;52.940;6.834;2022-10-12T16:47:07;19.25;;;8.55;;
57025;SDS011;43961;52.940;6.834;2022-10-12T16:49:33;27.58;;;8.38;;
57025;SDS011;43961;52.940;6.834;2022-10-12T16:51:59;21.83;;;9.43;;
57025;SDS011;43961;52.940;6.834;2022-10-12T16:54:24;17.95;;;8.43;;
57025;SDS011;43961;52.940;6.834;2022-10-12T16:56:52;15.88;;;8.23;;